sensor_id;sensor_type;location;lat;lon;timestamp;temperature;humidity
10802;DHT22;5453;50.852;7.102;2023-04-24T00:00:27;13.40;99.90
10802;DHT22;5453;50.852;7.102;2023-04-24T00:02:59;13.50;99.90
10802;DHT22;5453;50.852;7.102;2023-04-24T00:05:31;13.50;99.90
10802;DHT22;5453;50.852;7.102;2023-04-24T00:08:06;13.50;99.90
10802;DHT22;5453;50.852;7.102;2023-04-24T00:10:38;13.50;99.90
10802;DHT22;5453;50.852;7.102;2023-04-24T00:13:10;13.40;99.90
10802;DHT22;5453;50.852;7.102;2023-04-24T00:15:42;13.40;99.90
10802;DHT22;5453;50.852;7.102;2023-04-24T00:18:14;13.40;99.90
10802;DHT22;5453;50.852;7.102;2023-04-24T00:20:46;13.40;99.90
10802;DHT22;5453;50.852;7.102;2023-04-24T00:23:19;13.30;99.90
10802;DHT22;5453;50.852;7.102;2023-04-24T00:25:52;13.30;99.90
10802;DHT22;5453;50.852;7.102;2023-04-24T00:28:24;13.30;99.90
10802;DHT22;5453;50.852;7.102;2023-04-24T00:30:56;13.30;99.90
10802;DHT22;5453;50.852;7.102;2023-04-24T00:33:28;13.30;99.90
10802;DHT22;5453;50.852;7.102;2023-04-24T00:36:00;13.30;99.90
10802;DHT22;5453;50.852;7.102;2023-04-24T00:38:33;13.20;99.90
10802;DHT22;5453;50.852;7.102;2023-04-24T00:41:06;13.20;99.90
10802;DHT22;5453;50.852;7.102;2023-04-24T00:43:38;13.20;99.90
10802;DHT22;5453;50.852;7.102;2023-04-24T00:46:11;13.20;99.90
10802;DHT22;5453;50.852;7.102;2023-04-24T00:48:44;13.20;99.90
10802;DHT22;5453;50.852;7.102;2023-04-24T00:51:16;13.20;99.90
10802;DHT22;5453;50.852;7.102;2023-04-24T00:53:49;13.20;99.90
10802;DHT22;5453;50.852;7.102;2023-04-24T00:56:22;13.10;99.90
10802;DHT22;5453;50.852;7.102;2023-04-24T00:58:55;13.10;99.90
10802;DHT22;5453;50.852;7.102;2023-04-24T01:01:27;13.10;99.90
10802;DHT22;5453;50.852;7.102;2023-04-24T01:04:01;13.20;99.90
10802;DHT22;5453;50.852;7.102;2023-04-24T01:06:34;13.20;99.90
10802;DHT22;5453;50.852;7.102;2023-04-24T01:09:07;13.20;99.90
10802;DHT22;5453;50.852;7.102;2023-04-24T01:11:41;13.10;99.90
10802;DHT22;5453;50.852;7.102;2023-04-24T01:14:16;13.20;99.90
10802;DHT22;5453;50.852;7.102;2023-04-24T01:16:48;13.20;99.90
10802;DHT22;5453;50.852;7.102;2023-04-24T01:19:20;13.20;99.90
10802;DHT22;5453;50.852;7.102;2023-04-24T01:21:54;13.20;99.90
10802;DHT22;5453;50.852;7.102;2023-04-24T01:24:31;13.20;99.90
10802;DHT22;5453;50.852;7.102;2023-04-24T01:27:03;13.10;99.90
10802;DHT22;5453;50.852;7.102;2023-04-24T01:29:36;13.20;99.90
10802;DHT22;5453;50.852;7.102;2023-04-24T01:32:08;13.10;99.90
10802;DHT22;5453;50.852;7.102;2023-04-24T01:34:41;13.10;99.90
10802;DHT22;5453;50.852;7.102;2023-04-24T01:37:13;13.00;99.90
10802;DHT22;5453;50.852;7.102;2023-04-24T01:39:47;13.00;99.90
10802;DHT22;5453;50.852;7.102;2023-04-24T01:42:19;13.00;99.90
10802;DHT22;5453;50.852;7.102;2023-04-24T01:44:52;13.00;99.90
10802;DHT22;5453;50.852;7.102;2023-04-24T01:47:24;13.00;99.90
10802;DHT22;5453;50.852;7.102;2023-04-24T01:49:56;12.90;99.90
10802;DHT22;5453;50.852;7.102;2023-04-24T01:52:29;12.90;99.90
10802;DHT22;5453;50.852;7.102;2023-04-24T01:55:06;12.90;99.90
10802;DHT22;5453;50.852;7.102;2023-04-24T01:57:39;12.90;99.90
10802;DHT22;5453;50.852;7.102;2023-04-24T02:00:12;12.90;99.90
10802;DHT22;5453;50.852;7.102;2023-04-24T02:02:45;12.80;99.90
10802;DHT22;5453;50.852;7.102;2023-04-24T02:05:17;12.80;99.90
10802;DHT22;5453;50.852;7.102;2023-04-24T02:07:49;12.80;99.90
10802;DHT22;5453;50.852;7.102;2023-04-24T02:10:23;12.70;99.90
10802;DHT22;5453;50.852;7.102;2023-04-24T02:12:55;12.70;99.90
10802;DHT22;5453;50.852;7.102;2023-04-24T02:15:28;12.70;99.90
10802;DHT22;5453;50.852;7.102;2023-04-24T02:18:00;12.60;99.90
10802;DHT22;5453;50.852;7.102;2023-04-24T02:20:35;12.60;99.90
10802;DHT22;5453;50.852;7.102;2023-04-24T02:23:08;12.60;99.90
10802;DHT22;5453;50.852;7.102;2023-04-24T02:25:41;12.50;99.90
10802;DHT22;5453;50.852;7.102;2023-04-24T02:28:13;12.50;99.90
10802;DHT22;5453;50.852;7.102;2023-04-24T02:30:45;12.40;99.90
10802;DHT22;5453;50.852;7.102;2023-04-24T02:33:18;12.30;99.90
10802;DHT22;5453;50.852;7.102;2023-04-24T02:35:50;12.30;99.90
10802;DHT22;5453;50.852;7.102;2023-04-24T02:38:22;12.30;99.90
10802;DHT22;5453;50.852;7.102;2023-04-24T02:40:55;12.30;99.90
10802;DHT22;5453;50.852;7.102;2023-04-24T02:43:28;12.20;99.90
10802;DHT22;5453;50.852;7.102;2023-04-24T02:46:00;12.10;99.90
10802;DHT22;5453;50.852;7.102;2023-04-24T02:48:32;12.10;99.90
10802;DHT22;5453;50.852;7.102;2023-04-24T02:51:04;12.00;99.90
10802;DHT22;5453;50.852;7.102;2023-04-24T02:53:37;11.90;99.90
10802;DHT22;5453;50.852;7.102;2023-04-24T02:56:10;11.90;99.90
10802;DHT22;5453;50.852;7.102;2023-04-24T02:58:43;11.80;99.90
10802;DHT22;5453;50.852;7.102;2023-04-24T03:01:15;11.80;99.90
10802;DHT22;5453;50.852;7.102;2023-04-24T03:03:48;11.80;99.90
10802;DHT22;5453;50.852;7.102;2023-04-24T03:06:20;11.80;99.90
10802;DHT22;5453;50.852;7.102;2023-04-24T03:08:52;11.80;99.90
10802;DHT22;5453;50.852;7.102;2023-04-24T03:11:26;11.80;99.90
10802;DHT22;5453;50.852;7.102;2023-04-24T03:13:58;11.80;99.90
10802;DHT22;5453;50.852;7.102;2023-04-24T03:16:30;11.80;99.90
10802;DHT22;5453;50.852;7.102;2023-04-24T03:19:03;11.90;99.90
10802;DHT22;5453;50.852;7.102;2023-04-24T03:21:39;11.80;99.90
10802;DHT22;5453;50.852;7.102;2023-04-24T03:24:12;11.80;99.90
10802;DHT22;5453;50.852;7.102;2023-04-24T03:26:45;11.80;99.90
10802;DHT22;5453;50.852;7.102;2023-04-24T03:29:33;11.80;99.90
10802;DHT22;5453;50.852;7.102;2023-04-24T03:32:06;11.80;99.90
10802;DHT22;5453;50.852;7.102;2023-04-24T03:34:40;11.80;99.90
10802;DHT22;5453;50.852;7.102;2023-04-24T03:37:15;11.80;99.90
10802;DHT22;5453;50.852;7.102;2023-04-24T03:39:52;11.70;99.90
10802;DHT22;5453;50.852;7.102;2023-04-24T03:42:30;11.70;99.90
10802;DHT22;5453;50.852;7.102;2023-04-24T03:45:04;11.60;99.90
10802;DHT22;5453;50.852;7.102;2023-04-24T03:47:40;11.60;99.90
10802;DHT22;5453;50.852;7.102;2023-04-24T03:50:12;11.60;99.90
10802;DHT22;5453;50.852;7.102;2023-04-24T03:52:45;11.60;99.90
10802;DHT22;5453;50.852;7.102;2023-04-24T03:55:27;11.60;99.90
10802;DHT22;5453;50.852;7.102;2023-04-24T03:58:01;11.50;99.90
10802;DHT22;5453;50.852;7.102;2023-04-24T04:00:34;11.50;99.90
10802;DHT22;5453;50.852;7.102;2023-04-24T04:03:34;11.40;99.90
10802;DHT22;5453;50.852;7.102;2023-04-24T04:06:06;11.40;99.90
10802;DHT22;5453;50.852;7.102;2023-04-24T04:08:38;11.40;99.90
10802;DHT22;5453;50.852;7.102;2023-04-24T04:11:10;11.40;99.90
10802;DHT22;5453;50.852;7.102;2023-04-24T04:13:44;11.30;99.90
10802;DHT22;5453;50.852;7.102;2023-04-24T04:16:19;11.30;99.90
10802;DHT22;5453;50.852;7.102;2023-04-24T04:18:53;11.30;99.90
10802;DHT22;5453;50.852;7.102;2023-04-24T04:21:25;11.30;99.90
10802;DHT22;5453;50.852;7.102;2023-04-24T04:24:07;11.30;99.90
10802;DHT22;5453;50.852;7.102;2023-04-24T04:26:43;11.30;99.90
10802;DHT22;5453;50.852;7.102;2023-04-24T04:29:23;11.30;99.90
10802;DHT22;5453;50.852;7.102;2023-04-24T04:31:56;11.30;99.90
10802;DHT22;5453;50.852;7.102;2023-04-24T04:34:29;11.20;99.90
10802;DHT22;5453;50.852;7.102;2023-04-24T04:37:02;11.20;99.90
10802;DHT22;5453;50.852;7.102;2023-04-24T04:39:57;11.20;99.90
10802;DHT22;5453;50.852;7.102;2023-04-24T04:42:31;11.20;99.90
10802;DHT22;5453;50.852;7.102;2023-04-24T04:45:07;11.20;99.90
10802;DHT22;5453;50.852;7.102;2023-04-24T04:47:53;11.20;99.90
10802;DHT22;5453;50.852;7.102;2023-04-24T04:50:25;11.20;99.90
10802;DHT22;5453;50.852;7.102;2023-04-24T04:53:05;11.30;99.90
10802;DHT22;5453;50.852;7.102;2023-04-24T04:55:41;11.30;99.90
10802;DHT22;5453;50.852;7.102;2023-04-24T04:58:16;11.30;99.90
10802;DHT22;5453;50.852;7.102;2023-04-24T05:00:51;11.30;99.90
10802;DHT22;5453;50.852;7.102;2023-04-24T05:03:30;11.30;99.90
10802;DHT22;5453;50.852;7.102;2023-04-24T05:06:14;11.30;99.90
10802;DHT22;5453;50.852;7.102;2023-04-24T05:08:48;11.30;99.90
10802;DHT22;5453;50.852;7.102;2023-04-24T05:11:40;11.30;99.90
10802;DHT22;5453;50.852;7.102;2023-04-24T05:14:12;11.20;99.90
10802;DHT22;5453;50.852;7.102;2023-04-24T05:16:48;11.20;99.90
10802;DHT22;5453;50.852;7.102;2023-04-24T05:19:23;11.20;99.90
10802;DHT22;5453;50.852;7.102;2023-04-24T05:21:55;11.20;99.90
10802;DHT22;5453;50.852;7.102;2023-04-24T05:24:27;11.20;99.90
10802;DHT22;5453;50.852;7.102;2023-04-24T05:27:05;11.20;99.90
10802;DHT22;5453;50.852;7.102;2023-04-24T05:29:42;11.30;99.90
10802;DHT22;5453;50.852;7.102;2023-04-24T05:32:16;11.30;99.90
10802;DHT22;5453;50.852;7.102;2023-04-24T05:34:49;11.30;99.90
10802;DHT22;5453;50.852;7.102;2023-04-24T05:37:21;11.30;99.90
10802;DHT22;5453;50.852;7.102;2023-04-24T05:39:53;11.40;99.90
10802;DHT22;5453;50.852;7.102;2023-04-24T05:42:25;11.30;99.90
10802;DHT22;5453;50.852;7.102;2023-04-24T05:44:57;11.30;99.90
10802;DHT22;5453;50.852;7.102;2023-04-24T05:47:32;11.30;99.90
10802;DHT22;5453;50.852;7.102;2023-04-24T05:50:06;11.40;99.90
10802;DHT22;5453;50.852;7.102;2023-04-24T05:52:39;11.30;99.90
10802;DHT22;5453;50.852;7.102;2023-04-24T05:55:25;11.30;99.90
10802;DHT22;5453;50.852;7.102;2023-04-24T05:57:58;11.30;99.90
10802;DHT22;5453;50.852;7.102;2023-04-24T06:00:31;11.30;99.90
10802;DHT22;5453;50.852;7.102;2023-04-24T06:03:10;11.30;99.90
10802;DHT22;5453;50.852;7.102;2023-04-24T06:05:42;11.40;99.90
10802;DHT22;5453;50.852;7.102;2023-04-24T06:08:15;11.30;99.90
10802;DHT22;5453;50.852;7.102;2023-04-24T06:10:49;11.30;99.90
10802;DHT22;5453;50.852;7.102;2023-04-24T06:13:23;11.30;99.90
10802;DHT22;5453;50.852;7.102;2023-04-24T06:16:14;11.30;99.90
10802;DHT22;5453;50.852;7.102;2023-04-24T06:18:52;11.40;99.90
10802;DHT22;5453;50.852;7.102;2023-04-24T06:21:26;11.40;99.90
10802;DHT22;5453;50.852;7.102;2023-04-24T06:23:58;11.40;99.90
10802;DHT22;5453;50.852;7.102;2023-04-24T06:26:30;11.50;99.90
10802;DHT22;5453;50.852;7.102;2023-04-24T06:29:02;11.50;99.90
10802;DHT22;5453;50.852;7.102;2023-04-24T06:31:36;11.50;99.90
10802;DHT22;5453;50.852;7.102;2023-04-24T06:34:10;11.50;99.90
10802;DHT22;5453;50.852;7.102;2023-04-24T06:36:42;11.60;99.90
10802;DHT22;5453;50.852;7.102;2023-04-24T06:39:14;11.60;99.90
10802;DHT22;5453;50.852;7.102;2023-04-24T06:41:46;11.60;99.90
10802;DHT22;5453;50.852;7.102;2023-04-24T06:44:24;11.60;99.90
10802;DHT22;5453;50.852;7.102;2023-04-24T06:46:56;11.70;99.90
10802;DHT22;5453;50.852;7.102;2023-04-24T06:49:29;11.70;99.90
10802;DHT22;5453;50.852;7.102;2023-04-24T06:52:01;11.60;99.90
10802;DHT22;5453;50.852;7.102;2023-04-24T06:54:33;11.60;99.90
10802;DHT22;5453;50.852;7.102;2023-04-24T06:57:05;11.60;99.90
10802;DHT22;5453;50.852;7.102;2023-04-24T06:59:37;11.50;99.90
10802;DHT22;5453;50.852;7.102;2023-04-24T07:02:10;11.50;99.90
10802;DHT22;5453;50.852;7.102;2023-04-24T07:04:43;11.50;99.90
10802;DHT22;5453;50.852;7.102;2023-04-24T07:07:16;11.50;99.90
10802;DHT22;5453;50.852;7.102;2023-04-24T07:09:48;11.40;99.90
10802;DHT22;5453;50.852;7.102;2023-04-24T07:12:21;11.60;99.90
10802;DHT22;5453;50.852;7.102;2023-04-24T07:14:53;11.70;99.90
10802;DHT22;5453;50.852;7.102;2023-04-24T07:17:25;11.60;99.90
10802;DHT22;5453;50.852;7.102;2023-04-24T07:19:58;11.60;99.90
10802;DHT22;5453;50.852;7.102;2023-04-24T07:22:30;11.50;99.90
10802;DHT22;5453;50.852;7.102;2023-04-24T07:25:03;11.50;99.90
10802;DHT22;5453;50.852;7.102;2023-04-24T07:27:35;11.40;99.90
10802;DHT22;5453;50.852;7.102;2023-04-24T07:30:08;11.40;99.90
10802;DHT22;5453;50.852;7.102;2023-04-24T07:32:41;11.40;99.90
10802;DHT22;5453;50.852;7.102;2023-04-24T07:35:14;11.40;99.90
10802;DHT22;5453;50.852;7.102;2023-04-24T07:37:46;11.30;99.90
10802;DHT22;5453;50.852;7.102;2023-04-24T07:40:19;11.30;99.90
10802;DHT22;5453;50.852;7.102;2023-04-24T07:42:51;11.30;99.90
10802;DHT22;5453;50.852;7.102;2023-04-24T07:45:23;11.40;99.90
10802;DHT22;5453;50.852;7.102;2023-04-24T07:47:56;11.40;99.90
10802;DHT22;5453;50.852;7.102;2023-04-24T07:50:30;11.30;99.90
10802;DHT22;5453;50.852;7.102;2023-04-24T07:53:03;11.30;99.90
10802;DHT22;5453;50.852;7.102;2023-04-24T07:55:35;11.30;99.90
10802;DHT22;5453;50.852;7.102;2023-04-24T07:58:07;11.20;99.90
10802;DHT22;5453;50.852;7.102;2023-04-24T08:00:39;11.20;99.90
10802;DHT22;5453;50.852;7.102;2023-04-24T08:03:11;11.10;99.90
10802;DHT22;5453;50.852;7.102;2023-04-24T08:05:45;11.10;99.90
10802;DHT22;5453;50.852;7.102;2023-04-24T08:08:17;11.00;99.90
10802;DHT22;5453;50.852;7.102;2023-04-24T08:10:50;10.90;99.90
10802;DHT22;5453;50.852;7.102;2023-04-24T08:13:22;10.60;99.90
10802;DHT22;5453;50.852;7.102;2023-04-24T08:15:54;10.40;99.90
10802;DHT22;5453;50.852;7.102;2023-04-24T08:18:27;10.20;99.90
10802;DHT22;5453;50.852;7.102;2023-04-24T08:21:04;10.10;99.90
10802;DHT22;5453;50.852;7.102;2023-04-24T08:23:36;10.10;99.90
10802;DHT22;5453;50.852;7.102;2023-04-24T08:26:08;10.10;99.90
10802;DHT22;5453;50.852;7.102;2023-04-24T08:28:41;10.20;99.90
10802;DHT22;5453;50.852;7.102;2023-04-24T08:31:14;10.20;99.90
10802;DHT22;5453;50.852;7.102;2023-04-24T08:33:46;10.30;99.90
10802;DHT22;5453;50.852;7.102;2023-04-24T08:36:19;10.30;99.90
10802;DHT22;5453;50.852;7.102;2023-04-24T08:38:52;10.30;99.90
10802;DHT22;5453;50.852;7.102;2023-04-24T08:41:24;10.30;99.90
10802;DHT22;5453;50.852;7.102;2023-04-24T08:43:57;10.20;99.90
10802;DHT22;5453;50.852;7.102;2023-04-24T08:46:30;10.20;99.90
10802;DHT22;5453;50.852;7.102;2023-04-24T08:49:03;10.00;99.90
10802;DHT22;5453;50.852;7.102;2023-04-24T08:51:39;9.80;99.90
10802;DHT22;5453;50.852;7.102;2023-04-24T08:54:12;9.70;99.90
10802;DHT22;5453;50.852;7.102;2023-04-24T08:56:45;9.60;99.90
10802;DHT22;5453;50.852;7.102;2023-04-24T08:59:19;9.50;99.90
10802;DHT22;5453;50.852;7.102;2023-04-24T09:01:53;9.40;99.90
10802;DHT22;5453;50.852;7.102;2023-04-24T09:04:28;9.40;99.90
10802;DHT22;5453;50.852;7.102;2023-04-24T09:07:02;9.40;99.90
10802;DHT22;5453;50.852;7.102;2023-04-24T09:09:37;9.40;99.90
10802;DHT22;5453;50.852;7.102;2023-04-24T09:12:11;9.40;99.90
10802;DHT22;5453;50.852;7.102;2023-04-24T09:14:44;9.40;99.90
10802;DHT22;5453;50.852;7.102;2023-04-24T09:17:16;9.40;99.90
10802;DHT22;5453;50.852;7.102;2023-04-24T09:19:49;9.40;99.90
10802;DHT22;5453;50.852;7.102;2023-04-24T09:22:23;9.50;99.90
10802;DHT22;5453;50.852;7.102;2023-04-24T09:25:02;9.40;99.90
10802;DHT22;5453;50.852;7.102;2023-04-24T09:27:36;9.40;99.90
10802;DHT22;5453;50.852;7.102;2023-04-24T09:30:09;9.40;99.90
10802;DHT22;5453;50.852;7.102;2023-04-24T09:32:42;9.40;99.90
10802;DHT22;5453;50.852;7.102;2023-04-24T09:35:15;9.40;99.90
10802;DHT22;5453;50.852;7.102;2023-04-24T09:37:48;9.40;99.90
10802;DHT22;5453;50.852;7.102;2023-04-24T09:40:22;9.50;99.90
10802;DHT22;5453;50.852;7.102;2023-04-24T09:42:56;9.60;99.90
10802;DHT22;5453;50.852;7.102;2023-04-24T09:45:36;9.60;99.90
10802;DHT22;5453;50.852;7.102;2023-04-24T09:48:10;9.80;99.90
10802;DHT22;5453;50.852;7.102;2023-04-24T09:50:46;9.80;99.90
10802;DHT22;5453;50.852;7.102;2023-04-24T09:53:23;9.80;99.90
10802;DHT22;5453;50.852;7.102;2023-04-24T09:56:00;9.70;99.90
10802;DHT22;5453;50.852;7.102;2023-04-24T09:58:35;9.80;99.90
10802;DHT22;5453;50.852;7.102;2023-04-24T10:01:07;10.10;99.90
10802;DHT22;5453;50.852;7.102;2023-04-24T10:03:42;10.60;99.90
10802;DHT22;5453;50.852;7.102;2023-04-24T10:06:15;10.70;99.90
10802;DHT22;5453;50.852;7.102;2023-04-24T10:08:49;10.70;99.90
10802;DHT22;5453;50.852;7.102;2023-04-24T10:11:21;10.60;99.90
10802;DHT22;5453;50.852;7.102;2023-04-24T10:13:54;10.50;99.90
10802;DHT22;5453;50.852;7.102;2023-04-24T10:16:27;10.50;99.90
10802;DHT22;5453;50.852;7.102;2023-04-24T10:19:00;10.40;99.90
10802;DHT22;5453;50.852;7.102;2023-04-24T10:21:32;10.40;99.90
10802;DHT22;5453;50.852;7.102;2023-04-24T10:24:07;10.30;99.90
10802;DHT22;5453;50.852;7.102;2023-04-24T10:26:40;10.40;99.90
10802;DHT22;5453;50.852;7.102;2023-04-24T10:29:14;10.30;99.90
10802;DHT22;5453;50.852;7.102;2023-04-24T10:31:47;10.30;99.90
10802;DHT22;5453;50.852;7.102;2023-04-24T10:34:20;10.40;99.90
10802;DHT22;5453;50.852;7.102;2023-04-24T10:36:54;10.50;99.90
10802;DHT22;5453;50.852;7.102;2023-04-24T10:39:29;10.60;99.90
10802;DHT22;5453;50.852;7.102;2023-04-24T10:42:14;10.60;99.90
10802;DHT22;5453;50.852;7.102;2023-04-24T10:44:47;10.50;99.90
10802;DHT22;5453;50.852;7.102;2023-04-24T10:47:20;10.50;99.90
10802;DHT22;5453;50.852;7.102;2023-04-24T10:49:52;10.40;99.90
10802;DHT22;5453;50.852;7.102;2023-04-24T10:52:43;10.40;99.90
10802;DHT22;5453;50.852;7.102;2023-04-24T10:55:43;10.50;99.90
10802;DHT22;5453;50.852;7.102;2023-04-24T10:58:18;10.60;99.90
10802;DHT22;5453;50.852;7.102;2023-04-24T11:00:57;10.70;99.90
10802;DHT22;5453;50.852;7.102;2023-04-24T11:03:31;10.80;99.90
10802;DHT22;5453;50.852;7.102;2023-04-24T11:06:06;10.90;99.90
10802;DHT22;5453;50.852;7.102;2023-04-24T11:08:42;11.00;99.90
10802;DHT22;5453;50.852;7.102;2023-04-24T11:11:19;11.10;99.90
10802;DHT22;5453;50.852;7.102;2023-04-24T11:14:06;11.10;99.90
10802;DHT22;5453;50.852;7.102;2023-04-24T11:16:45;11.10;99.90
10802;DHT22;5453;50.852;7.102;2023-04-24T11:19:22;11.10;99.90
10802;DHT22;5453;50.852;7.102;2023-04-24T11:21:58;11.00;99.90
10802;DHT22;5453;50.852;7.102;2023-04-24T11:24:38;11.10;99.90
10802;DHT22;5453;50.852;7.102;2023-04-24T11:27:21;11.00;99.90
10802;DHT22;5453;50.852;7.102;2023-04-24T11:29:59;10.90;99.90
10802;DHT22;5453;50.852;7.102;2023-04-24T11:32:35;10.80;99.90
10802;DHT22;5453;50.852;7.102;2023-04-24T11:35:15;10.80;99.90
10802;DHT22;5453;50.852;7.102;2023-04-24T11:37:49;10.80;99.90
10802;DHT22;5453;50.852;7.102;2023-04-24T11:40:23;10.80;99.90
10802;DHT22;5453;50.852;7.102;2023-04-24T11:42:59;10.70;99.90
10802;DHT22;5453;50.852;7.102;2023-04-24T11:45:32;10.70;99.90
10802;DHT22;5453;50.852;7.102;2023-04-24T11:48:04;10.70;99.90
10802;DHT22;5453;50.852;7.102;2023-04-24T11:50:36;10.70;99.90
10802;DHT22;5453;50.852;7.102;2023-04-24T11:53:08;10.70;99.90
10802;DHT22;5453;50.852;7.102;2023-04-24T11:55:41;10.80;99.90
10802;DHT22;5453;50.852;7.102;2023-04-24T11:58:14;10.80;99.90
10802;DHT22;5453;50.852;7.102;2023-04-24T12:00:56;10.80;99.90
10802;DHT22;5453;50.852;7.102;2023-04-24T12:03:28;10.90;99.90
10802;DHT22;5453;50.852;7.102;2023-04-24T12:06:07;11.10;99.90
10802;DHT22;5453;50.852;7.102;2023-04-24T12:08:39;11.30;99.90
10802;DHT22;5453;50.852;7.102;2023-04-24T12:11:15;11.40;99.90
10802;DHT22;5453;50.852;7.102;2023-04-24T12:13:49;11.50;99.90
10802;DHT22;5453;50.852;7.102;2023-04-24T12:16:22;11.60;99.90
10802;DHT22;5453;50.852;7.102;2023-04-24T12:18:54;11.60;99.90
10802;DHT22;5453;50.852;7.102;2023-04-24T12:21:26;11.70;99.90
10802;DHT22;5453;50.852;7.102;2023-04-24T12:24:00;11.80;99.90
10802;DHT22;5453;50.852;7.102;2023-04-24T12:26:33;11.90;99.90
10802;DHT22;5453;50.852;7.102;2023-04-24T12:29:06;11.90;99.90
10802;DHT22;5453;50.852;7.102;2023-04-24T12:31:39;11.90;99.90
10802;DHT22;5453;50.852;7.102;2023-04-24T12:34:18;11.90;99.90
10802;DHT22;5453;50.852;7.102;2023-04-24T12:36:50;11.90;99.90
10802;DHT22;5453;50.852;7.102;2023-04-24T12:39:23;11.80;99.90
10802;DHT22;5453;50.852;7.102;2023-04-24T12:41:57;11.80;99.90
10802;DHT22;5453;50.852;7.102;2023-04-24T12:44:32;11.70;99.90
10802;DHT22;5453;50.852;7.102;2023-04-24T12:47:05;11.50;99.90
10802;DHT22;5453;50.852;7.102;2023-04-24T12:49:38;11.40;99.90
10802;DHT22;5453;50.852;7.102;2023-04-24T12:52:10;11.30;99.90
10802;DHT22;5453;50.852;7.102;2023-04-24T12:54:42;11.30;99.90
10802;DHT22;5453;50.852;7.102;2023-04-24T12:57:14;11.30;99.90
10802;DHT22;5453;50.852;7.102;2023-04-24T12:59:48;11.60;99.90
10802;DHT22;5453;50.852;7.102;2023-04-24T13:02:20;11.80;99.90
10802;DHT22;5453;50.852;7.102;2023-04-24T13:04:53;12.20;99.90
10802;DHT22;5453;50.852;7.102;2023-04-24T13:07:25;12.50;99.90
10802;DHT22;5453;50.852;7.102;2023-04-24T13:09:58;12.80;99.90
10802;DHT22;5453;50.852;7.102;2023-04-24T13:12:30;12.90;99.90
10802;DHT22;5453;50.852;7.102;2023-04-24T13:15:05;12.90;99.90
10802;DHT22;5453;50.852;7.102;2023-04-24T13:17:37;12.80;99.90
10802;DHT22;5453;50.852;7.102;2023-04-24T13:20:10;12.80;99.90
10802;DHT22;5453;50.852;7.102;2023-04-24T13:22:42;12.70;99.90
10802;DHT22;5453;50.852;7.102;2023-04-24T13:25:14;12.70;99.90
10802;DHT22;5453;50.852;7.102;2023-04-24T13:27:47;12.80;99.90
10802;DHT22;5453;50.852;7.102;2023-04-24T13:30:21;12.70;99.90
10802;DHT22;5453;50.852;7.102;2023-04-24T13:32:53;12.70;99.90
10802;DHT22;5453;50.852;7.102;2023-04-24T13:35:25;12.60;99.90
10802;DHT22;5453;50.852;7.102;2023-04-24T13:37:58;12.70;99.90
10802;DHT22;5453;50.852;7.102;2023-04-24T13:40:33;12.70;99.90
10802;DHT22;5453;50.852;7.102;2023-04-24T13:43:05;12.70;99.90
10802;DHT22;5453;50.852;7.102;2023-04-24T13:45:38;12.70;99.90
10802;DHT22;5453;50.852;7.102;2023-04-24T13:48:11;12.70;99.90
10802;DHT22;5453;50.852;7.102;2023-04-24T13:50:45;12.60;99.90
10802;DHT22;5453;50.852;7.102;2023-04-24T13:53:18;12.60;99.90
10802;DHT22;5453;50.852;7.102;2023-04-24T13:55:51;12.70;99.90
10802;DHT22;5453;50.852;7.102;2023-04-24T13:58:23;12.80;99.90
10802;DHT22;5453;50.852;7.102;2023-04-24T14:00:57;12.80;99.90
10802;DHT22;5453;50.852;7.102;2023-04-24T14:03:29;12.80;99.90
10802;DHT22;5453;50.852;7.102;2023-04-24T14:06:01;12.80;99.90
10802;DHT22;5453;50.852;7.102;2023-04-24T14:08:33;12.90;99.90
10802;DHT22;5453;50.852;7.102;2023-04-24T14:11:05;12.80;99.90
10802;DHT22;5453;50.852;7.102;2023-04-24T14:13:37;12.90;99.90
10802;DHT22;5453;50.852;7.102;2023-04-24T14:16:12;12.90;99.90
10802;DHT22;5453;50.852;7.102;2023-04-24T14:18:45;13.10;99.90
10802;DHT22;5453;50.852;7.102;2023-04-24T14:21:17;13.20;99.90
10802;DHT22;5453;50.852;7.102;2023-04-24T14:23:49;13.30;99.90
10802;DHT22;5453;50.852;7.102;2023-04-24T14:26:21;13.40;99.90
10802;DHT22;5453;50.852;7.102;2023-04-24T14:28:55;13.40;99.90
10802;DHT22;5453;50.852;7.102;2023-04-24T14:31:28;13.40;99.90
10802;DHT22;5453;50.852;7.102;2023-04-24T14:34:00;13.30;99.90
10802;DHT22;5453;50.852;7.102;2023-04-24T14:36:33;13.40;99.90
10802;DHT22;5453;50.852;7.102;2023-04-24T14:39:06;13.60;99.90
10802;DHT22;5453;50.852;7.102;2023-04-24T14:41:38;13.70;99.90
10802;DHT22;5453;50.852;7.102;2023-04-24T14:44:10;13.80;99.90
10802;DHT22;5453;50.852;7.102;2023-04-24T14:46:44;13.90;99.90
10802;DHT22;5453;50.852;7.102;2023-04-24T14:49:16;13.80;99.90
10802;DHT22;5453;50.852;7.102;2023-04-24T14:51:48;13.80;99.90
10802;DHT22;5453;50.852;7.102;2023-04-24T14:54:20;13.80;99.90
10802;DHT22;5453;50.852;7.102;2023-04-24T14:56:54;13.90;99.90
10802;DHT22;5453;50.852;7.102;2023-04-24T14:59:27;13.90;99.90
10802;DHT22;5453;50.852;7.102;2023-04-24T15:02:01;13.90;99.90
10802;DHT22;5453;50.852;7.102;2023-04-24T15:04:33;13.90;99.90
10802;DHT22;5453;50.852;7.102;2023-04-24T15:07:05;13.90;99.90
10802;DHT22;5453;50.852;7.102;2023-04-24T15:09:37;14.00;99.90
10802;DHT22;5453;50.852;7.102;2023-04-24T15:12:09;14.00;99.90
10802;DHT22;5453;50.852;7.102;2023-04-24T15:14:42;14.10;99.90
10802;DHT22;5453;50.852;7.102;2023-04-24T15:17:16;14.00;99.90
10802;DHT22;5453;50.852;7.102;2023-04-24T15:19:48;13.90;99.90
10802;DHT22;5453;50.852;7.102;2023-04-24T15:22:20;13.90;99.90
10802;DHT22;5453;50.852;7.102;2023-04-24T15:24:52;13.80;99.90
10802;DHT22;5453;50.852;7.102;2023-04-24T15:27:25;13.70;99.90
10802;DHT22;5453;50.852;7.102;2023-04-24T15:29:57;13.60;99.90
10802;DHT22;5453;50.852;7.102;2023-04-24T15:32:31;13.50;99.90
10802;DHT22;5453;50.852;7.102;2023-04-24T15:35:04;13.50;99.90
10802;DHT22;5453;50.852;7.102;2023-04-24T15:37:36;13.40;99.90
10802;DHT22;5453;50.852;7.102;2023-04-24T15:40:10;13.40;99.90
10802;DHT22;5453;50.852;7.102;2023-04-24T15:42:46;13.40;99.90
10802;DHT22;5453;50.852;7.102;2023-04-24T15:45:18;13.50;99.90
10802;DHT22;5453;50.852;7.102;2023-04-24T15:47:51;13.60;99.90
10802;DHT22;5453;50.852;7.102;2023-04-24T15:50:24;13.50;99.90
10802;DHT22;5453;50.852;7.102;2023-04-24T15:52:57;13.60;99.90
10802;DHT22;5453;50.852;7.102;2023-04-24T15:55:29;13.50;99.90
10802;DHT22;5453;50.852;7.102;2023-04-24T15:58:03;13.50;99.90
10802;DHT22;5453;50.852;7.102;2023-04-24T16:00:35;13.50;99.90
10802;DHT22;5453;50.852;7.102;2023-04-24T16:03:08;13.50;99.90
10802;DHT22;5453;50.852;7.102;2023-04-24T16:05:40;13.60;99.90
10802;DHT22;5453;50.852;7.102;2023-04-24T16:08:12;13.60;99.90
10802;DHT22;5453;50.852;7.102;2023-04-24T16:10:45;13.50;99.90
10802;DHT22;5453;50.852;7.102;2023-04-24T16:13:17;13.50;99.90
10802;DHT22;5453;50.852;7.102;2023-04-24T16:15:49;13.50;99.90
10802;DHT22;5453;50.852;7.102;2023-04-24T16:18:23;13.50;99.90
10802;DHT22;5453;50.852;7.102;2023-04-24T16:20:56;13.40;99.90
10802;DHT22;5453;50.852;7.102;2023-04-24T16:23:28;13.30;99.90
10802;DHT22;5453;50.852;7.102;2023-04-24T16:26:00;13.30;99.90
10802;DHT22;5453;50.852;7.102;2023-04-24T16:28:32;13.20;99.90